Hoover, Alabama
Current Conditions -  °F | °C
As of 10:53 AM on Sunday 21 Dec 2014 (Local Time) from KBHM Reporting Station
Broken Clouds Broken Clouds  
Wind Chill: 10°   Ceiling: 25000
Heat Index: 10°   Visibility: 9mi
Dew Point:   Wind: 5mph
Humidity: 77%   Direction: NA
Pressure: 30.18"   Gusts: NA
Location:  33.39°N, 86.8°W
Report Text: KBHM 211653Z VRB04KT 9SM SCT012 BKN250 10/06 A3018 RMK AO2 SLP219 T01000061
Loading
Personal Weather Stations






























Interactive Weather Map New forecast layout! Learn more

10-Day Weather Forecast

Advertisements
Track Severe Weather on mobile